createdAt,value
2018-06-21T00:01:07.131Z,69.20
2018-06-21T00:03:36.205Z,69.60
2018-06-21T00:06:05.472Z,69.70
2018-06-21T00:08:34.534Z,71.10
2018-06-21T00:11:04.044Z,70.00
2018-06-21T00:13:33.104Z,70.20
2018-06-21T00:16:02.248Z,70.20
2018-06-21T00:18:31.336Z,70.80
2018-06-21T00:21:00.448Z,70.70
2018-06-21T00:23:29.608Z,71.30
2018-06-21T00:25:58.709Z,71.10
2018-06-21T00:28:27.880Z,71.00
2018-06-21T00:30:57.016Z,70.50
2018-06-21T00:33:26.153Z,70.20
2018-06-21T00:35:55.267Z,70.00
2018-06-21T00:38:24.357Z,69.90
2018-06-21T00:40:53.788Z,70.00
2018-06-21T00:43:22.915Z,70.40
2018-06-21T00:45:52.196Z,70.10
2018-06-21T00:48:21.302Z,69.50
2018-06-21T00:50:50.387Z,69.20
2018-06-21T00:53:19.457Z,69.20
2018-06-21T00:55:59.992Z,70.80
2018-06-21T00:58:29.424Z,70.90
2018-06-21T01:00:58.480Z,71.40
2018-06-21T01:03:27.655Z,70.60
2018-06-21T01:05:56.708Z,70.20
2018-06-21T01:08:26.269Z,70.00
2018-06-21T01:10:55.300Z,69.80
2018-06-21T01:13:24.375Z,69.90
2018-06-21T01:15:53.455Z,70.00
2018-06-21T01:18:22.602Z,71.10
2018-06-21T01:20:51.668Z,70.40
2018-06-21T01:23:20.736Z,70.70
2018-06-21T01:25:50.023Z,71.10
2018-06-21T01:28:19.108Z,71.00
2018-06-21T01:30:48.653Z,71.20
2018-06-21T01:33:17.717Z,71.30
2018-06-21T01:35:46.829Z,71.20
2018-06-21T01:38:15.912Z,71.10
2018-06-21T01:40:45.008Z,71.00
2018-06-21T01:43:14.023Z,71.70
2018-06-21T01:45:43.136Z,72.20
2018-06-21T01:48:12.206Z,72.30
2018-06-21T01:50:41.543Z,72.70
2018-06-21T01:53:10.589Z,72.80
2018-06-21T01:55:39.646Z,72.90
2018-06-21T01:58:08.685Z,73.10
2018-06-21T02:00:37.729Z,73.20
2018-06-21T02:03:06.868Z,73.20
2018-06-21T02:05:36.036Z,73.10
2018-06-21T02:08:05.170Z,73.20
2018-06-21T02:10:34.199Z,73.50
2018-06-21T02:15:32.160Z,74.30
2018-06-21T02:18:01.491Z,74.00
2018-06-21T02:20:30.537Z,74.30
2018-06-21T02:22:59.589Z,74.10
2018-06-21T02:25:28.736Z,74.20
2018-06-21T02:27:57.828Z,74.10
2018-06-21T02:30:26.896Z,74.30
2018-06-21T02:32:56.229Z,74.60
2018-06-21T02:35:25.324Z,74.50
2018-06-21T02:37:54.368Z,74.50
2018-06-21T02:40:24.321Z,74.50
2018-06-21T02:42:53.721Z,74.60
2018-06-21T02:45:22.774Z,74.10
2018-06-21T02:47:51.874Z,74.30
2018-06-21T02:50:20.921Z,73.90
2018-06-21T02:52:50.056Z,73.80
2018-06-21T02:55:19.117Z,74.00
2018-06-21T02:57:48.378Z,73.90
2018-06-21T03:00:17.496Z,74.00
2018-06-21T03:02:46.736Z,73.90
2018-06-21T03:05:15.788Z,74.00
2018-06-21T03:07:44.924Z,73.80
2018-06-21T03:10:13.981Z,73.50
2018-06-21T03:12:43.078Z,73.10
2018-06-21T03:15:12.138Z,73.60
2018-06-21T03:17:41.311Z,74.20
2018-06-21T03:20:10.362Z,74.30
2018-06-21T03:22:39.541Z,74.50
2018-06-21T03:25:08.684Z,74.40
2018-06-21T03:27:37.772Z,74.60
2018-06-21T03:30:06.843Z,74.80
2018-06-21T03:32:35.875Z,74.40
2018-06-21T03:35:05.134Z,74.40
2018-06-21T03:37:34.208Z,74.80
2018-06-21T03:40:03.412Z,74.40
2018-06-21T03:42:33.478Z,74.90
2018-06-21T03:45:02.740Z,75.50
2018-06-21T03:47:31.761Z,74.70
2018-06-21T03:50:00.919Z,73.70
2018-06-21T03:52:29.916Z,74.50
2018-06-21T03:54:58.984Z,74.20
2018-06-21T03:57:28.022Z,74.60
2018-06-21T03:59:57.183Z,74.30
2018-06-21T04:02:26.263Z,73.30
2018-06-21T04:04:55.699Z,73.20
2018-06-21T04:07:24.749Z,74.10
2018-06-21T04:09:53.906Z,75.00
2018-06-21T04:12:22.931Z,75.10
2018-06-21T04:14:52.884Z,75.00
2018-06-21T04:17:21.941Z,74.50
2018-06-21T04:19:51.039Z,74.00
2018-06-21T04:22:20.076Z,73.10
2018-06-21T04:24:49.252Z,72.30
2018-06-21T04:27:18.305Z,71.80
2018-06-21T04:29:47.616Z,71.70
2018-06-21T04:32:16.710Z,71.80
2018-06-21T04:34:45.865Z,72.10
2018-06-21T04:37:14.944Z,71.80
2018-06-21T04:39:44.275Z,71.30
2018-06-21T04:42:13.336Z,71.40
2018-06-21T04:44:42.428Z,71.40
2018-06-21T04:47:11.511Z,71.40
2018-06-21T04:49:40.636Z,71.90
2018-06-21T04:52:09.778Z,71.10
2018-06-21T04:54:38.840Z,70.40
2018-06-21T04:57:07.945Z,68.70
2018-06-21T04:59:37.056Z,67.80
2018-06-21T05:02:06.673Z,69.00
2018-06-21T05:04:35.941Z,68.00
2018-06-21T05:07:05.057Z,67.70
2018-06-21T05:09:34.225Z,68.50
2018-06-21T05:12:03.311Z,68.80
2018-06-21T05:14:32.469Z,67.40
2018-06-21T05:17:01.592Z,67.70
2018-06-21T05:19:30.625Z,67.90
2018-06-21T05:21:59.677Z,69.30
2018-06-21T05:24:28.854Z,70.30
2018-06-21T05:26:57.945Z,70.20
2018-06-21T05:29:27.199Z,70.60
2018-06-21T05:31:56.268Z,70.90
2018-06-21T05:34:25.346Z,70.30
2018-06-21T05:36:54.425Z,71.40
2018-06-21T05:39:23.470Z,70.10
2018-06-21T05:41:52.570Z,70.90
2018-06-21T05:44:21.820Z,70.30
2018-06-21T05:46:50.844Z,69.80
2018-06-21T05:49:20.025Z,69.60
2018-06-21T05:51:49.052Z,69.30
2018-06-21T05:54:18.317Z,69.60
2018-06-21T05:56:47.413Z,69.70
2018-06-21T05:59:16.636Z,69.10
2018-06-21T06:01:45.816Z,69.30
2018-06-21T06:06:43.588Z,68.60
2018-06-21T06:09:13.069Z,67.90
2018-06-21T06:11:42.181Z,67.80
2018-06-21T06:14:11.452Z,66.30
2018-06-21T06:16:40.528Z,66.30
2018-06-21T06:19:09.990Z,65.20
2018-06-21T06:21:39.058Z,65.40
2018-06-21T06:24:08.176Z,68.10
2018-06-21T06:26:37.589Z,67.10
2018-06-21T06:29:06.620Z,65.80
2018-06-21T06:31:35.693Z,65.00
2018-06-21T06:34:05.098Z,65.70
2018-06-21T06:36:34.202Z,67.00
2018-06-21T06:39:13.888Z,67.10
2018-06-21T06:41:43.012Z,66.40
2018-06-21T06:44:12.225Z,66.00
2018-06-21T06:46:41.404Z,65.80
2018-06-21T06:49:10.987Z,65.30
2018-06-21T06:51:40.688Z,63.70
2018-06-21T06:54:10.839Z,61.00
2018-06-21T06:56:39.920Z,58.40
2018-06-21T06:59:09.080Z,56.00
2018-06-21T07:01:38.144Z,54.60
2018-06-21T07:04:10.286Z,54.80
2018-06-21T07:06:39.385Z,55.80
2018-06-21T07:09:09.179Z,54.60
2018-06-21T07:11:38.528Z,54.70
2018-06-21T07:14:07.598Z,53.10
2018-06-21T07:16:36.986Z,54.50
2018-06-21T07:19:06.480Z,54.80
2018-06-21T07:21:38.320Z,55.10
2018-06-21T07:24:07.948Z,55.70
2018-06-21T07:26:37.967Z,56.60
2018-06-21T07:29:07.575Z,54.60
2018-06-21T07:31:37.707Z,55.20
2018-06-21T07:34:06.756Z,57.20
2018-06-21T07:36:35.802Z,56.90
2018-06-21T07:39:07.784Z,55.30
2018-06-21T07:41:37.126Z,55.30
2018-06-21T07:44:06.363Z,53.90
2018-06-21T07:46:35.824Z,53.40
2018-06-21T07:49:04.859Z,56.30
2018-06-21T07:51:34.017Z,55.80
2018-06-21T07:54:03.092Z,54.20
2018-06-21T07:56:32.314Z,53.50
2018-06-21T07:59:01.464Z,54.90
2018-06-21T08:01:30.818Z,54.30
2018-06-21T08:03:59.902Z,55.10
2018-06-21T08:06:29.204Z,55.30
2018-06-21T08:08:58.274Z,54.20
2018-06-21T08:11:27.368Z,53.60
2018-06-21T08:13:56.420Z,56.20
2018-06-21T08:16:25.487Z,55.30
2018-06-21T08:23:51.899Z,55.40
2018-06-21T08:26:20.937Z,54.30
2018-06-21T08:28:50.081Z,52.80
2018-06-21T08:31:19.288Z,52.30
2018-06-21T08:33:48.429Z,52.60
2018-06-21T08:36:17.512Z,51.20
2018-06-21T08:38:47.052Z,51.70
2018-06-21T08:41:16.080Z,50.80
2018-06-21T08:43:45.187Z,51.80
2018-06-21T08:46:14.345Z,51.50
2018-06-21T08:48:44.316Z,51.50
2018-06-21T08:51:13.556Z,53.30
2018-06-21T08:53:42.714Z,53.10
2018-06-21T08:56:11.970Z,52.80
2018-06-21T08:58:41.045Z,52.40
2018-06-21T09:01:10.141Z,52.40
2018-06-21T09:03:39.204Z,52.60
2018-06-21T09:06:08.622Z,52.10
2018-06-21T09:08:38.009Z,52.50
2018-06-21T09:11:07.094Z,53.00
2018-06-21T09:13:37.340Z,51.90
2018-06-21T09:16:08.454Z,51.40
2018-06-21T09:18:37.588Z,52.10
2018-06-21T09:21:06.684Z,51.30
2018-06-21T09:23:35.851Z,51.40
2018-06-21T09:26:05.092Z,50.80
2018-06-21T09:28:34.264Z,51.50
2018-06-21T09:31:03.284Z,51.70
2018-06-21T09:33:32.392Z,51.20
2018-06-21T09:36:01.509Z,49.20
2018-06-21T09:39:34.717Z,49.50
2018-06-21T09:42:09.351Z,49.10
2018-06-21T09:44:42.698Z,50.30
2018-06-21T09:47:17.516Z,50.30
2018-06-21T09:49:46.797Z,50.20
2018-06-21T09:52:15.876Z,50.30
2018-06-21T09:54:45.088Z,50.60
2018-06-21T09:59:42.929Z,50.10
2018-06-21T10:02:11.960Z,50.70
2018-06-21T10:04:41.060Z,50.00
2018-06-21T10:07:10.387Z,49.70
2018-06-21T10:09:39.406Z,50.40
2018-06-21T10:12:08.746Z,50.20
2018-06-21T10:14:37.772Z,51.00
2018-06-21T10:17:09.179Z,51.10
2018-06-21T10:19:39.813Z,50.30
2018-06-21T10:22:08.898Z,50.30
2018-06-21T10:24:38.607Z,50.50
2018-06-21T10:27:07.685Z,50.90
2018-06-21T10:29:36.772Z,51.20
2018-06-21T10:32:05.859Z,51.60
2018-06-21T10:34:34.917Z,51.90
2018-06-21T10:37:04.132Z,50.50
2018-06-21T10:39:33.187Z,51.30
2018-06-21T10:42:02.344Z,51.80
2018-06-21T10:44:31.462Z,52.60
2018-06-21T10:47:00.864Z,52.00
2018-06-21T10:49:29.955Z,51.80
2018-06-21T10:51:59.101Z,51.50
2018-06-21T10:54:28.211Z,52.10
2018-06-21T10:56:57.641Z,51.50
2018-06-21T10:59:26.703Z,51.90
2018-06-21T11:01:56.160Z,50.90
2018-06-21T11:04:25.228Z,51.10
2018-06-21T11:06:54.371Z,50.60
2018-06-21T11:09:23.405Z,50.10
2018-06-21T11:11:52.837Z,51.10
2018-06-21T11:14:21.910Z,50.50
2018-06-21T11:16:51.183Z,50.50
2018-06-21T11:19:20.312Z,48.50
2018-06-21T11:21:49.533Z,49.10
2018-06-21T11:24:18.589Z,49.40
2018-06-21T11:26:47.724Z,48.20
2018-06-21T11:29:16.770Z,47.50
2018-06-21T11:31:45.890Z,48.30
2018-06-21T11:34:14.991Z,53.60
2018-06-21T11:36:44.088Z,55.40
2018-06-21T11:39:13.153Z,56.30
2018-06-21T11:41:42.272Z,56.90
2018-06-21T11:44:11.324Z,57.50
2018-06-21T11:46:40.423Z,57.80
2018-06-21T11:49:09.477Z,58.60
2018-06-21T11:51:39.387Z,58.50
2018-06-21T11:54:08.537Z,59.20
2018-06-21T11:56:37.898Z,59.40
2018-06-21T11:59:06.948Z,59.60
2018-06-21T12:06:33.588Z,60.30
2018-06-21T12:09:02.867Z,60.40
2018-06-21T12:11:31.920Z,59.70
2018-06-21T12:14:00.987Z,60.50
2018-06-21T12:16:30.059Z,60.30
2018-06-21T12:18:59.120Z,59.60
2018-06-21T12:21:28.168Z,60.10
2018-06-21T12:23:57.288Z,61.10
2018-06-21T12:26:26.436Z,61.70
2018-06-21T12:28:55.457Z,61.80
2018-06-21T12:31:24.570Z,60.70
2018-06-21T12:33:54.028Z,61.50
2018-06-21T12:36:23.149Z,60.60
2018-06-21T12:38:52.192Z,60.00
2018-06-21T12:41:21.295Z,60.10
2018-06-21T12:43:50.360Z,60.50
2018-06-21T12:46:19.651Z,59.60
2018-06-21T12:48:48.700Z,58.80
2018-06-21T12:51:18.009Z,58.70
2018-06-21T12:56:16.105Z,56.20
2018-06-21T12:58:45.182Z,55.90
2018-06-21T13:01:14.435Z,56.80
2018-06-21T13:03:43.473Z,55.10
2018-06-21T13:06:12.621Z,53.60
2018-06-21T13:08:53.014Z,53.20
2018-06-21T13:11:33.059Z,52.10
2018-06-21T13:14:13.709Z,51.20
2018-06-21T13:16:43.136Z,51.80
2018-06-21T13:19:12.193Z,49.80
2018-06-21T13:21:41.276Z,50.20
2018-06-21T13:24:10.522Z,49.70
2018-06-21T13:26:39.561Z,48.50
2018-06-21T13:29:08.666Z,48.50
2018-06-21T13:31:37.729Z,47.90
2018-06-21T13:34:06.804Z,45.70
2018-06-21T13:36:35.845Z,45.80
2018-06-21T13:39:06.800Z,45.10
2018-06-21T13:41:35.876Z,46.20
2018-06-21T13:44:05.420Z,42.50
2018-06-21T13:46:34.482Z,44.60
2018-06-21T13:49:03.525Z,48.60
2018-06-21T13:51:32.596Z,50.20
2018-06-21T13:54:02.570Z,50.20
2018-06-21T13:56:31.657Z,49.80
2018-06-21T13:59:01.627Z,49.60
2018-06-21T14:01:30.701Z,48.90
2018-06-21T14:03:59.976Z,48.00
2018-06-21T14:06:29.076Z,47.40
2018-06-21T14:08:58.298Z,47.40
2018-06-21T14:11:27.397Z,47.70
2018-06-21T14:13:57.809Z,46.30
2018-06-21T14:16:26.884Z,47.20
2018-06-21T14:18:55.938Z,47.20
2018-06-21T14:23:54.307Z,45.30
2018-06-21T14:26:23.497Z,44.80
2018-06-21T14:28:52.590Z,44.60
2018-06-21T14:31:22.407Z,43.60
2018-06-21T14:33:51.810Z,42.80
2018-06-21T14:36:20.849Z,44.40
2018-06-21T14:38:50.009Z,41.70
2018-06-21T14:41:19.401Z,41.60
2018-06-21T14:43:48.555Z,42.20
2018-06-21T14:46:17.705Z,40.80
2018-06-21T14:48:46.918Z,39.60
2018-06-21T14:51:16.024Z,39.00
2018-06-21T14:53:45.216Z,38.80
2018-06-21T14:56:14.359Z,38.20
2018-06-21T14:58:44.085Z,37.00
2018-06-21T15:03:41.977Z,36.10
2018-06-21T15:06:11.022Z,33.70
2018-06-21T15:11:08.952Z,29.30
2018-06-21T15:13:38.045Z,26.70
2018-06-21T15:16:07.087Z,27.10
2018-06-21T15:18:36.175Z,25.40
2018-06-21T15:21:05.434Z,24.10
2018-06-21T15:23:34.484Z,23.40
2018-06-21T15:26:03.674Z,24.90
2018-06-21T15:28:32.728Z,25.60
2018-06-21T15:31:01.911Z,24.10
2018-06-21T15:33:32.019Z,23.50
2018-06-21T15:36:01.084Z,23.20
2018-06-21T15:38:30.156Z,23.60
2018-06-21T15:40:59.220Z,24.20
2018-06-21T15:43:28.416Z,24.00
2018-06-21T15:45:57.511Z,24.30
2018-06-21T15:48:26.611Z,25.80
2018-06-21T15:51:02.097Z,27.60
2018-06-21T15:53:31.308Z,27.20
2018-06-21T15:56:00.404Z,28.00
2018-06-21T15:58:29.598Z,27.40
2018-06-21T16:00:58.800Z,28.30
2018-06-21T16:03:27.871Z,27.10
2018-06-21T16:05:57.170Z,28.70
2018-06-21T16:08:26.393Z,28.00
2018-06-21T16:10:55.910Z,30.90
2018-06-21T16:13:25.228Z,29.20
2018-06-21T16:15:54.352Z,28.40
2018-06-21T16:18:23.665Z,28.00
2018-06-21T16:20:52.821Z,28.40
2018-06-21T16:23:21.909Z,28.50
2018-06-21T16:25:50.956Z,28.30
2018-06-21T16:28:20.083Z,27.60
2018-06-21T16:35:46.624Z,28.70
2018-06-21T16:38:15.678Z,27.80
2018-06-21T16:43:13.408Z,27.20
2018-06-21T16:55:37.480Z,27.90
2018-06-21T16:58:06.532Z,30.00
2018-06-21T17:00:35.563Z,29.10
2018-06-21T17:03:04.656Z,29.80
2018-06-21T17:05:33.899Z,29.50
2018-06-21T17:08:03.047Z,29.20
2018-06-21T17:10:32.175Z,29.30
2018-06-21T17:13:01.512Z,28.50
2018-06-21T17:15:30.631Z,28.30
2018-06-21T17:17:59.713Z,28.50
2018-06-21T17:20:28.789Z,28.60
2018-06-21T17:22:57.936Z,28.10
2018-06-21T17:25:27.001Z,28.90
2018-06-21T17:27:56.173Z,28.60
2018-06-21T17:30:25.245Z,28.50
2018-06-21T17:32:54.384Z,27.70
2018-06-21T17:35:23.544Z,29.80
2018-06-21T17:37:52.809Z,29.10
2018-06-21T17:40:21.884Z,29.20
2018-06-21T17:42:51.145Z,29.30
2018-06-21T17:45:20.467Z,28.30
2018-06-21T17:47:49.548Z,28.60
2018-06-21T17:50:18.688Z,29.70
2018-06-21T17:52:47.843Z,28.80
2018-06-21T17:55:16.941Z,30.00
2018-06-21T17:57:46.155Z,30.50
2018-06-21T18:00:15.184Z,31.30
2018-06-21T18:02:44.315Z,31.80
2018-06-21T18:05:13.478Z,32.60
2018-06-21T18:07:42.784Z,32.60
2018-06-21T18:10:11.924Z,32.10
2018-06-21T18:12:41.136Z,30.70
2018-06-21T18:15:10.597Z,31.70
2018-06-21T18:17:39.825Z,31.10
2018-06-21T18:20:08.944Z,30.60
2018-06-21T18:22:38.041Z,31.40
2018-06-21T18:25:07.286Z,30.70
2018-06-21T18:27:36.449Z,31.50
2018-06-21T18:30:05.651Z,34.10
2018-06-21T18:32:34.793Z,32.30
2018-06-21T18:35:04.148Z,32.40
2018-06-21T18:37:33.256Z,32.20
2018-06-21T18:40:02.419Z,31.90
2018-06-21T18:42:31.474Z,32.90
2018-06-21T18:45:00.724Z,35.40
2018-06-21T18:47:29.836Z,32.90
2018-06-21T18:49:59.052Z,33.00
2018-06-21T18:52:28.206Z,33.40
2018-06-21T18:54:57.341Z,34.70
2018-06-21T18:57:26.360Z,33.80
2018-06-21T18:59:55.570Z,33.50
2018-06-21T19:02:24.624Z,33.60
2018-06-21T19:04:54.258Z,35.30
2018-06-21T19:17:32.067Z,33.50
2018-06-21T19:20:01.335Z,35.00
2018-06-21T19:22:30.520Z,34.20
2018-06-21T19:24:59.653Z,33.60
2018-06-21T19:27:29.018Z,35.40
2018-06-21T20:39:44.341Z,34.50
2018-06-21T20:42:13.448Z,37.50
2018-06-21T20:44:42.680Z,37.20
2018-06-21T20:47:11.868Z,38.00
2018-06-21T20:49:40.971Z,38.70
2018-06-21T20:52:14.397Z,38.40
2018-06-21T20:54:43.606Z,38.60
2018-06-21T20:57:12.837Z,39.60
2018-06-21T20:59:42.360Z,38.80
2018-06-21T21:02:11.708Z,38.90
2018-06-21T21:05:16.772Z,39.60
2018-06-21T21:07:47.196Z,39.50
2018-06-21T21:32:37.357Z,39.70
2018-06-21T21:35:06.544Z,40.80
2018-06-21T21:37:35.660Z,41.00
2018-06-21T21:40:05.995Z,40.50
2018-06-21T21:54:59.860Z,40.80
2018-06-21T21:57:28.934Z,42.50
2018-06-21T21:59:57.949Z,41.90
2018-06-21T22:02:27.056Z,43.20
2018-06-21T22:04:56.104Z,42.40
2018-06-21T22:07:25.210Z,42.50
2018-06-21T22:09:54.320Z,42.60
2018-06-21T22:12:23.369Z,42.70
2018-06-21T22:14:53.203Z,43.10
2018-06-21T22:17:22.278Z,43.40
2018-06-21T22:19:51.369Z,43.20
2018-06-21T22:22:20.561Z,44.40
2018-06-21T22:24:50.017Z,44.60
2018-06-21T22:27:19.128Z,44.40
2018-06-21T22:29:48.214Z,44.30
2018-06-21T22:32:17.396Z,44.40
2018-06-21T22:34:46.650Z,44.70
2018-06-21T22:37:15.736Z,45.30
2018-06-21T22:39:45.301Z,45.20
2018-06-21T22:42:14.362Z,45.20
2018-06-21T22:44:43.489Z,45.30
2018-06-21T22:47:12.560Z,45.90
2018-06-21T22:49:41.580Z,46.20
2018-06-21T22:52:10.676Z,46.60
2018-06-21T22:54:39.889Z,47.20
2018-06-21T22:57:08.936Z,47.00
2018-06-21T22:59:38.030Z,47.10
2018-06-21T23:02:07.265Z,47.10
2018-06-21T23:04:36.364Z,46.90
2018-06-21T23:07:05.476Z,47.00
2018-06-21T23:09:34.630Z,47.60
2018-06-21T23:12:03.661Z,47.10
2018-06-21T23:14:32.732Z,47.10
2018-06-21T23:17:01.829Z,47.90
2018-06-21T23:19:31.936Z,48.30
2018-06-21T23:22:02.003Z,48.60
2018-06-21T23:24:31.060Z,48.50
2018-06-21T23:27:00.245Z,49.10
2018-06-21T23:29:29.284Z,49.50
2018-06-21T23:31:58.458Z,49.50
2018-06-21T23:34:27.544Z,49.60
2018-06-21T23:36:56.712Z,50.10
2018-06-21T23:39:25.782Z,49.70
2018-06-21T23:41:54.897Z,49.70
2018-06-21T23:44:23.994Z,49.90
2018-06-21T23:46:53.116Z,49.90
2018-06-21T23:49:22.213Z,50.50
2018-06-21T23:51:54.571Z,50.90
2018-06-21T23:54:24.268Z,51.00
2018-06-21T23:56:53.433Z,50.90
2018-06-21T23:59:22.512Z,50.60
